This is the latest recevied weather packets stored in our database for station/object OE5RBO. If no packets are shown the sender has not sent any weather packets the latest 10 day(s).
| Time | Temp. | Humidity | Pressure | Rain* | Wind** | Luminosity | Snow |
|---|---|---|---|---|---|---|---|
| 1788355447 | 26.67° C | 55% | 1020.4 hPa | 0 mm | - | - | - |
| 1788354846 | 26.11° C | 57% | 1020.5 hPa | 0 mm | - | - | - |
| 1788354246 | 26.67° C | 55% | 1020.5 hPa | 0 mm | - | - | - |
| 1788353045 | 26.67° C | 55% | 1020.7 hPa | 0 mm | - | - | - |
| 1788352445 | 26.11° C | 58% | 1020.7 hPa | 0 mm | - | - | - |
| 1788351844 | 26.11° C | 55% | 1020.8 hPa | 0 mm | - | - | - |
| 1788351244 | 25.56° C | 57% | 1020.8 hPa | 0 mm | - | - | - |
| 1788350644 | 25° C | 61% | 1021 hPa | 0 mm | - | - | - |
| 1788350043 | 25.56° C | 58% | 1020.9 hPa | 0 mm | - | - | - |
| 1788349443 | 26.11° C | 57% | 1021 hPa | 0 mm | - | - | - |
| 1788348842 | 26.11° C | 55% | 1021 hPa | 0 mm | - | - | - |
| 1788348242 | 25.56° C | 55% | 1021 hPa | 0 mm | - | - | - |
| 1788347041 | 27.22° C | 53% | 1021.3 hPa | 0 mm | - | - | - |
| 1788346441 | 26.67° C | 53% | 1021.4 hPa | 0 mm | - | - | - |
| 1788345841 | 26.11° C | 55% | 1021.4 hPa | 0 mm | - | - | - |
| 1788345240 | 25.56° C | 58% | 1021.4 hPa | 0 mm | - | - | - |
| 1788344640 | 25° C | 59% | 1021.4 hPa | 0 mm | - | - | - |
| 1788344040 | 25.56° C | 58% | 1021.4 hPa | 0 mm | - | - | - |
| 1788343439 | 25.56° C | 60% | 1021.7 hPa | 0 mm | - | - | - |
| 1788342839 | 25.56° C | 58% | 1021.7 hPa | 0 mm | - | - | - |
| 1788342238 | 25.56° C | 61% | 1021.6 hPa | 0 mm | - | - | - |
| 1788341638 | 26.11° C | 61% | 1021.6 hPa | 0 mm | - | - | - |
| 1788341038 | 26.11° C | 60% | 1021.6 hPa | 0 mm | - | - | - |
| 1788340437 | 26.67° C | 57% | 1021.7 hPa | 0 mm | - | - | - |
| 1788339837 | 26.11° C | 58% | 1021.7 hPa | 0 mm | - | - | - |
* Rain since midnight (hover to see other rain measurements)
** Current wind speed in m/s (hover to see current wind gust speed)